createdAt,value
2023-09-27T00:01:29.746Z,6.57
2023-09-27T00:03:57.421Z,6.80
2023-09-27T00:06:25.241Z,7.05
2023-09-27T00:08:52.682Z,6.72
2023-09-27T00:11:20.596Z,6.60
2023-09-27T00:13:48.162Z,6.77
2023-09-27T00:16:15.486Z,6.82
2023-09-27T00:18:42.817Z,6.43
2023-09-27T00:21:10.096Z,6.47
2023-09-27T00:23:37.355Z,7.15
2023-09-27T00:26:04.939Z,6.80
2023-09-27T00:28:32.298Z,6.28
2023-09-27T00:30:59.646Z,6.85
2023-09-27T00:33:27.028Z,7.07
2023-09-27T00:35:54.605Z,6.60
2023-09-27T00:38:21.936Z,6.90
2023-09-27T00:40:49.446Z,6.38
2023-09-27T00:43:29.681Z,6.85
2023-09-27T00:46:07.352Z,6.50
2023-09-27T00:48:36.303Z,6.57
2023-09-27T00:51:03.738Z,6.80
2023-09-27T00:53:33.319Z,7.07
2023-09-27T00:56:01.311Z,6.85
2023-09-27T00:58:28.790Z,7.18
2023-09-27T01:00:56.078Z,6.68
2023-09-27T01:03:23.405Z,6.20
2023-09-27T01:05:50.805Z,7.80
2023-09-27T01:08:18.211Z,6.72
2023-09-27T01:10:46.241Z,6.78
2023-09-27T01:13:13.735Z,7.82
2023-09-27T01:15:42.175Z,6.83
2023-09-27T01:18:09.727Z,6.78
2023-09-27T01:20:37.138Z,6.60
2023-09-27T01:23:05.027Z,7.20
2023-09-27T01:25:39.117Z,7.50
2023-09-27T01:28:08.583Z,6.90
2023-09-27T01:30:36.454Z,6.90
2023-09-27T01:33:08.265Z,6.95
2023-09-27T01:35:45.095Z,6.90
2023-09-27T01:38:13.037Z,7.15
2023-09-27T01:40:44.680Z,7.50
2023-09-27T01:43:12.714Z,7.25
2023-09-27T01:45:40.155Z,6.10
2023-09-27T01:48:07.746Z,7.05
2023-09-27T01:50:35.695Z,6.55
2023-09-27T01:53:04.374Z,6.97
2023-09-27T01:55:32.442Z,7.05
2023-09-27T01:58:01.264Z,7.88
2023-09-27T02:00:28.935Z,7.20
2023-09-27T02:02:57.688Z,6.85
2023-09-27T02:05:25.908Z,6.90
2023-09-27T02:07:53.365Z,7.35
2023-09-27T02:10:21.690Z,7.50
2023-09-27T02:12:48.988Z,7.63
2023-09-27T02:15:16.664Z,7.50
2023-09-27T02:17:44.255Z,7.50
2023-09-27T02:20:13.679Z,8.23
2023-09-27T02:22:41.723Z,6.90
2023-09-27T02:25:10.852Z,6.95
2023-09-27T02:27:41.844Z,7.95
2023-09-27T02:30:12.580Z,7.63
2023-09-27T02:32:43.797Z,7.43
2023-09-27T02:35:12.085Z,8.05
2023-09-27T02:37:41.071Z,7.70
2023-09-27T02:40:15.787Z,8.07
2023-09-27T02:42:44.504Z,7.17
2023-09-27T02:45:12.673Z,7.65
2023-09-27T02:47:40.882Z,7.35
2023-09-27T02:50:11.544Z,8.23
2023-09-27T02:52:42.173Z,7.65
2023-09-27T02:55:10.643Z,8.00
2023-09-27T02:57:39.759Z,7.88
2023-09-27T03:00:07.904Z,8.68
2023-09-27T03:02:36.135Z,8.00
2023-09-27T03:05:08.161Z,8.18
2023-09-27T03:07:35.437Z,8.17
2023-09-27T03:10:09.844Z,8.73
2023-09-27T03:12:39.743Z,7.70
2023-09-27T03:15:12.670Z,7.82
2023-09-27T03:17:43.683Z,8.27
2023-09-27T03:20:20.852Z,7.90
2023-09-27T03:22:49.388Z,7.75
2023-09-27T03:25:20.063Z,7.75
2023-09-27T03:27:47.926Z,7.93
2023-09-27T03:30:16.180Z,7.82
2023-09-27T03:32:43.925Z,8.20
2023-09-27T03:35:11.270Z,8.07
2023-09-27T03:37:38.583Z,8.10
2023-09-27T03:40:14.699Z,7.72
2023-09-27T03:42:46.308Z,7.82
2023-09-27T03:45:15.562Z,7.93
2023-09-27T03:47:46.970Z,8.10
2023-09-27T03:50:18.829Z,8.00
2023-09-27T03:52:46.181Z,8.48
2023-09-27T03:55:13.698Z,9.45
2023-09-27T03:57:41.371Z,9.07
2023-09-27T04:00:15.043Z,8.40
2023-09-27T04:02:43.901Z,7.97
2023-09-27T04:05:12.211Z,8.85
2023-09-27T04:07:40.491Z,8.57
2023-09-27T04:10:09.110Z,8.20
2023-09-27T04:12:36.533Z,8.52
2023-09-27T04:15:07.926Z,8.80
2023-09-27T04:17:35.330Z,9.27
2023-09-27T04:20:07.973Z,10.13
2023-09-27T04:22:35.439Z,11.07
2023-09-27T04:25:02.993Z,8.90
2023-09-27T04:27:30.264Z,9.68
2023-09-27T04:29:57.560Z,10.38
2023-09-27T04:32:26.596Z,9.07
2023-09-27T04:34:53.868Z,9.70
2023-09-27T04:37:21.134Z,8.00
2023-09-27T04:39:48.492Z,8.73
2023-09-27T04:42:15.780Z,7.90
2023-09-27T04:44:43.240Z,8.52
2023-09-27T04:47:10.647Z,8.83
2023-09-27T04:49:37.972Z,8.60
2023-09-27T04:52:05.272Z,8.13
2023-09-27T04:54:33.046Z,7.80
2023-09-27T04:57:00.331Z,8.55
2023-09-27T04:59:27.655Z,7.67
2023-09-27T05:01:54.942Z,8.27
2023-09-27T05:04:22.559Z,8.80
2023-09-27T05:06:49.976Z,8.77
2023-09-27T05:09:19.260Z,7.90
2023-09-27T05:11:48.073Z,7.93
2023-09-27T05:14:15.612Z,7.05
2023-09-27T05:16:43.040Z,7.47
2023-09-27T05:19:10.440Z,6.57
2023-09-27T05:21:40.549Z,7.93
2023-09-27T05:24:08.829Z,8.10
2023-09-27T05:26:36.195Z,7.38
2023-09-27T05:29:03.782Z,6.90
2023-09-27T05:31:31.207Z,6.40
2023-09-27T05:33:58.587Z,6.57
2023-09-27T05:36:25.872Z,6.30
2023-09-27T05:38:53.393Z,7.10
2023-09-27T05:41:20.991Z,6.75
2023-09-27T05:43:48.349Z,7.80
2023-09-27T05:46:15.716Z,6.53
2023-09-27T05:48:43.051Z,6.60
2023-09-27T05:51:10.760Z,6.82
2023-09-27T05:53:38.049Z,6.70
2023-09-27T05:56:05.451Z,6.68
2023-09-27T05:58:37.098Z,6.18
2023-09-27T06:01:06.120Z,6.87
2023-09-27T06:03:33.617Z,6.95
2023-09-27T06:06:01.049Z,6.75
2023-09-27T06:08:28.409Z,6.97
2023-09-27T06:10:56.914Z,7.45
2023-09-27T06:13:25.130Z,6.63
2023-09-27T06:15:52.613Z,6.93
2023-09-27T06:18:20.419Z,6.78
2023-09-27T06:20:48.740Z,6.70
2023-09-27T06:23:16.094Z,6.50
2023-09-27T06:25:44.980Z,5.70
2023-09-27T06:28:14.646Z,6.40
2023-09-27T06:30:42.252Z,6.53
2023-09-27T06:33:10.480Z,6.05
2023-09-27T06:35:38.079Z,6.40
2023-09-27T06:38:06.929Z,7.60
2023-09-27T06:40:34.259Z,6.35
2023-09-27T06:43:02.059Z,6.22
2023-09-27T06:45:30.128Z,6.85
2023-09-27T06:47:57.771Z,6.80
2023-09-27T06:50:25.313Z,6.67
2023-09-27T06:52:59.957Z,6.97
2023-09-27T06:55:34.658Z,6.53
2023-09-27T06:58:02.008Z,6.25
2023-09-27T07:00:29.417Z,6.38
2023-09-27T07:02:56.955Z,6.43
2023-09-27T07:05:24.733Z,7.10
2023-09-27T07:07:52.106Z,7.05
2023-09-27T07:10:19.501Z,6.70
2023-09-27T07:12:47.518Z,6.88
2023-09-27T07:15:15.471Z,7.40
2023-09-27T07:17:44.928Z,7.07
2023-09-27T07:20:39.046Z,6.68
2023-09-27T07:23:07.657Z,6.90
2023-09-27T07:25:39.263Z,6.60
2023-09-27T07:28:06.946Z,7.23
2023-09-27T07:30:34.984Z,6.70
2023-09-27T07:33:07.422Z,6.82
2023-09-27T07:35:36.340Z,6.85
2023-09-27T07:38:03.978Z,6.50
2023-09-27T07:40:31.533Z,6.03
2023-09-27T07:42:59.903Z,6.10
2023-09-27T07:45:31.453Z,5.97
2023-09-27T07:47:58.949Z,6.20
2023-09-27T07:50:32.587Z,6.13
2023-09-27T07:53:00.601Z,5.77
2023-09-27T07:55:28.217Z,5.70
2023-09-27T07:57:55.715Z,5.95
2023-09-27T08:00:29.597Z,6.13
2023-09-27T08:02:59.433Z,5.55
2023-09-27T08:05:27.005Z,5.30
2023-09-27T08:07:54.272Z,5.65
2023-09-27T08:10:22.514Z,5.78
2023-09-27T08:12:49.932Z,6.22
2023-09-27T08:15:19.140Z,5.95
2023-09-27T08:17:48.731Z,5.70
2023-09-27T08:20:16.610Z,6.05
2023-09-27T08:22:44.032Z,5.90
2023-09-27T08:25:18.437Z,6.28
2023-09-27T08:27:46.133Z,6.30
2023-09-27T08:30:13.985Z,6.17
2023-09-27T08:32:43.030Z,5.35
2023-09-27T08:35:11.109Z,5.80
2023-09-27T08:37:38.593Z,5.72
2023-09-27T08:40:08.563Z,5.57
2023-09-27T08:42:36.001Z,6.07
2023-09-27T08:45:04.331Z,5.80
2023-09-27T08:47:32.037Z,6.07
2023-09-27T08:50:01.016Z,5.65
2023-09-27T08:52:29.331Z,5.63
2023-09-27T08:54:56.604Z,5.83
2023-09-27T08:57:25.386Z,6.50
2023-09-27T08:59:53.060Z,6.82
2023-09-27T09:02:20.794Z,6.22
2023-09-27T09:04:48.168Z,6.55
2023-09-27T09:07:15.870Z,5.97
2023-09-27T09:09:43.225Z,6.60
2023-09-27T09:12:10.999Z,6.13
2023-09-27T09:14:50.842Z,6.10
2023-09-27T09:17:20.253Z,6.20
2023-09-27T09:20:16.713Z,6.40
2023-09-27T09:22:47.777Z,6.63
2023-09-27T09:25:15.240Z,5.95
2023-09-27T09:27:44.992Z,6.35
2023-09-27T09:30:13.030Z,6.32
2023-09-27T09:32:52.976Z,6.37
2023-09-27T09:35:33.210Z,5.85
2023-09-27T09:38:02.784Z,6.20
2023-09-27T09:40:31.528Z,5.97
2023-09-27T09:43:01.034Z,6.10
2023-09-27T09:45:30.201Z,5.37
2023-09-27T09:47:58.777Z,5.32
2023-09-27T09:50:28.311Z,5.55
2023-09-27T09:52:58.655Z,5.70
2023-09-27T09:55:48.545Z,6.05
2023-09-27T09:58:14.818Z,5.73
2023-09-27T10:00:43.556Z,5.35
2023-09-27T10:03:11.002Z,6.32
2023-09-27T10:05:39.558Z,5.75
2023-09-27T10:08:07.416Z,5.88
2023-09-27T10:10:35.465Z,5.90
2023-09-27T10:13:05.461Z,5.43
2023-09-27T10:15:34.790Z,6.05
2023-09-27T10:18:23.884Z,5.28
2023-09-27T10:21:06.537Z,6.70
2023-09-27T10:23:49.138Z,5.53
2023-09-27T10:26:34.480Z,6.68
2023-09-27T10:29:15.239Z,5.30
2023-09-27T10:31:58.120Z,6.05
2023-09-27T10:34:37.480Z,5.50
2023-09-27T10:37:17.931Z,8.10
2023-09-27T10:40:23.806Z,5.10
2023-09-27T10:42:51.177Z,5.50
2023-09-27T10:45:18.876Z,5.82
2023-09-27T10:47:48.111Z,5.00
2023-09-27T10:50:17.828Z,4.93
2023-09-27T10:52:45.355Z,5.28
2023-09-27T10:55:13.538Z,4.97
2023-09-27T10:57:41.485Z,5.15
2023-09-27T11:00:12.640Z,6.60
2023-09-27T11:02:40.310Z,6.87
2023-09-27T11:05:09.064Z,6.00
2023-09-27T11:07:43.812Z,13.85
2023-09-27T11:10:11.368Z,6.38
2023-09-27T11:12:38.747Z,6.05
2023-09-27T11:15:07.023Z,5.73
2023-09-27T11:17:34.416Z,6.55
2023-09-27T11:20:11.904Z,5.40
2023-09-27T11:22:39.265Z,5.47
2023-09-27T11:25:26.292Z,6.00
2023-09-27T11:27:53.657Z,6.83
2023-09-27T11:30:27.572Z,5.32
2023-09-27T11:32:55.784Z,4.50
2023-09-27T11:35:25.438Z,5.57
2023-09-27T11:38:13.400Z,5.25
2023-09-27T11:40:44.123Z,5.57
2023-09-27T11:43:13.647Z,4.47
2023-09-27T11:45:48.994Z,5.60
2023-09-27T11:48:17.486Z,4.85
2023-09-27T11:50:45.011Z,4.90
2023-09-27T11:53:13.856Z,5.47
2023-09-27T11:55:42.487Z,4.97
2023-09-27T11:58:10.267Z,5.05
2023-09-27T12:00:37.815Z,5.28
2023-09-27T12:03:06.057Z,4.80
2023-09-27T12:05:39.249Z,4.87
2023-09-27T12:08:06.965Z,5.18
2023-09-27T12:10:34.331Z,5.03
2023-09-27T12:13:01.744Z,5.10
2023-09-27T12:15:29.490Z,5.15
2023-09-27T12:17:57.052Z,4.90
2023-09-27T12:22:59.781Z,5.28
2023-09-27T12:25:28.223Z,4.90
2023-09-27T12:27:55.611Z,5.35
2023-09-27T12:30:22.880Z,4.80
2023-09-27T12:32:52.477Z,5.00
2023-09-27T12:35:21.469Z,4.53
2023-09-27T12:37:49.471Z,4.72
2023-09-27T12:40:16.978Z,5.18
2023-09-27T12:42:44.339Z,4.77
2023-09-27T12:45:11.837Z,4.35
2023-09-27T12:47:39.280Z,4.72
2023-09-27T12:50:07.905Z,4.80
2023-09-27T12:52:35.808Z,4.90
2023-09-27T12:55:03.347Z,5.40
2023-09-27T12:57:30.627Z,4.97
2023-09-27T12:59:58.121Z,4.28
2023-09-27T13:02:28.706Z,4.97
2023-09-27T13:04:56.097Z,4.80
2023-09-27T13:07:23.422Z,4.43
2023-09-27T13:09:51.484Z,4.85
2023-09-27T13:12:18.907Z,4.70
2023-09-27T13:14:46.568Z,4.82
2023-09-27T13:17:13.900Z,5.07
2023-09-27T13:19:41.270Z,5.10
2023-09-27T13:22:08.618Z,4.15
2023-09-27T13:24:35.949Z,4.50
2023-09-27T13:27:03.221Z,4.30
2023-09-27T13:29:30.592Z,4.63
2023-09-27T13:31:58.491Z,4.63
2023-09-27T13:34:25.736Z,4.65
2023-09-27T13:36:53.171Z,4.70
2023-09-27T13:39:26.316Z,4.38
2023-09-27T13:41:53.913Z,4.30
2023-09-27T13:44:21.380Z,4.77
2023-09-27T13:46:50.510Z,4.50
2023-09-27T13:49:18.349Z,4.22
2023-09-27T13:51:45.634Z,4.90
2023-09-27T13:54:15.717Z,4.95
2023-09-27T13:56:43.155Z,4.60
2023-09-27T13:59:10.465Z,4.93
2023-09-27T14:01:38.173Z,4.35
2023-09-27T14:04:05.768Z,4.35
2023-09-27T14:06:33.105Z,4.40
2023-09-27T14:09:00.417Z,4.73
2023-09-27T14:11:27.873Z,4.95
2023-09-27T14:13:55.333Z,4.90
2023-09-27T14:16:23.005Z,5.05
2023-09-27T14:18:50.359Z,5.10
2023-09-27T14:21:17.794Z,5.43
2023-09-27T14:23:45.589Z,5.75
2023-09-27T14:26:13.109Z,5.07
2023-09-27T14:28:40.569Z,5.55
2023-09-27T14:31:07.979Z,5.43
2023-09-27T14:33:36.464Z,5.60
2023-09-27T14:36:05.325Z,5.70
2023-09-27T14:38:35.794Z,5.55
2023-09-27T14:41:12.214Z,5.45
2023-09-27T14:43:39.866Z,5.78
2023-09-27T14:46:11.676Z,6.00
2023-09-27T14:48:39.673Z,5.95
2023-09-27T14:51:09.116Z,5.60
2023-09-27T14:53:41.899Z,5.80
2023-09-27T14:56:09.639Z,7.00
2023-09-27T14:58:37.030Z,5.70
2023-09-27T15:01:05.345Z,6.25
2023-09-27T15:03:33.560Z,5.78
2023-09-27T15:06:04.712Z,4.65
2023-09-27T15:08:32.106Z,5.32
2023-09-27T15:10:59.571Z,6.37
2023-09-27T15:13:27.667Z,4.60
2023-09-27T15:15:55.496Z,4.70
2023-09-27T15:18:25.749Z,4.18
2023-09-27T15:20:54.880Z,4.55
2023-09-27T15:23:22.362Z,5.20
2023-09-27T15:25:50.131Z,4.53
2023-09-27T15:28:17.742Z,4.70
2023-09-27T15:30:45.214Z,4.78
2023-09-27T15:33:12.661Z,4.50
2023-09-27T15:35:40.281Z,4.73
2023-09-27T15:38:08.009Z,3.92
2023-09-27T15:40:35.469Z,4.57
2023-09-27T15:43:02.915Z,4.53
2023-09-27T15:45:31.155Z,4.43
2023-09-27T15:47:58.793Z,4.50
2023-09-27T15:50:27.264Z,4.25
2023-09-27T15:52:54.605Z,4.05
2023-09-27T15:55:21.932Z,4.32
2023-09-27T15:57:49.300Z,4.15
2023-09-27T16:00:17.500Z,4.40
2023-09-27T16:02:45.926Z,4.45
2023-09-27T16:05:13.646Z,4.53
2023-09-27T16:07:41.297Z,4.30
2023-09-27T16:10:10.225Z,3.83
2023-09-27T16:12:37.771Z,5.00
2023-09-27T16:15:07.882Z,4.80
2023-09-27T16:17:36.775Z,4.95
2023-09-27T16:20:06.260Z,4.47
2023-09-27T16:22:33.612Z,4.40
2023-09-27T16:25:04.860Z,4.87
2023-09-27T16:27:32.589Z,5.05
2023-09-27T16:30:00.090Z,4.57
2023-09-27T16:32:27.961Z,5.10
2023-09-27T16:34:55.418Z,5.82
2023-09-27T16:37:22.863Z,6.07
2023-09-27T16:39:50.697Z,5.32
2023-09-27T16:42:18.054Z,6.40
2023-09-27T16:44:45.435Z,4.95
2023-09-27T16:47:12.839Z,5.03
2023-09-27T16:49:40.836Z,4.70
2023-09-27T16:52:08.119Z,4.40
2023-09-27T16:54:35.468Z,4.47
2023-09-27T16:57:03.793Z,4.40
2023-09-27T16:59:31.140Z,4.60
2023-09-27T17:01:58.644Z,4.67
2023-09-27T17:04:26.126Z,4.53
2023-09-27T17:06:53.480Z,4.55
2023-09-27T17:09:20.788Z,4.50
2023-09-27T17:11:48.066Z,4.45
2023-09-27T17:14:15.355Z,4.23
2023-09-27T17:16:43.055Z,4.25
2023-09-27T17:19:10.365Z,4.05
2023-09-27T17:21:39.507Z,4.03
2023-09-27T17:24:07.081Z,4.00
2023-09-27T17:26:34.442Z,3.77
2023-09-27T17:29:01.776Z,4.53
2023-09-27T17:31:29.199Z,3.70
2023-09-27T17:33:56.765Z,3.60
2023-09-27T17:36:24.233Z,4.13
2023-09-27T17:38:51.520Z,4.13
2023-09-27T17:41:18.890Z,4.03
2023-09-27T17:43:46.241Z,4.03
2023-09-27T17:46:23.219Z,4.20
2023-09-27T17:48:50.737Z,3.92
2023-09-27T17:51:18.076Z,4.80
2023-09-27T17:53:45.471Z,4.38
2023-09-27T17:56:12.789Z,4.45
2023-09-27T17:58:40.151Z,4.28
2023-09-27T18:01:07.523Z,3.80
2023-09-27T18:03:34.926Z,3.70
2023-09-27T18:06:06.528Z,3.78
2023-09-27T18:08:34.096Z,4.25
2023-09-27T18:11:15.534Z,4.45
2023-09-27T18:13:43.393Z,4.13
2023-09-27T18:16:18.078Z,4.27
2023-09-27T18:18:46.103Z,4.40
2023-09-27T18:21:13.710Z,4.50
2023-09-27T18:23:42.424Z,4.57
2023-09-27T18:26:13.129Z,4.60
2023-09-27T18:28:40.458Z,4.10
2023-09-27T18:31:08.379Z,3.90
2023-09-27T18:33:35.694Z,4.70
2023-09-27T18:36:03.941Z,4.60
2023-09-27T18:38:31.259Z,4.40
2023-09-27T18:40:58.704Z,4.47
2023-09-27T18:43:26.192Z,3.88
2023-09-27T18:45:53.768Z,4.20
2023-09-27T18:48:21.477Z,4.55
2023-09-27T18:50:50.002Z,3.72
2023-09-27T18:53:17.660Z,3.63
2023-09-27T18:55:45.705Z,4.15
2023-09-27T18:58:15.358Z,4.60
2023-09-27T19:00:43.062Z,4.10
2023-09-27T19:03:11.013Z,4.32
2023-09-27T19:05:38.380Z,4.60
2023-09-27T19:08:05.862Z,4.22
2023-09-27T19:10:33.495Z,4.35
2023-09-27T19:13:00.866Z,4.47
2023-09-27T19:15:28.237Z,4.40
2023-09-27T19:17:57.910Z,4.30
2023-09-27T19:20:25.529Z,4.22
2023-09-27T19:22:54.077Z,4.28
2023-09-27T19:25:21.993Z,3.90
2023-09-27T19:27:49.863Z,4.03
2023-09-27T19:30:17.347Z,4.37
2023-09-27T19:32:45.233Z,4.20
2023-09-27T19:35:16.038Z,4.80
2023-09-27T19:37:43.714Z,4.47
2023-09-27T19:40:11.541Z,5.10
2023-09-27T19:42:38.981Z,4.17
2023-09-27T19:45:07.009Z,4.28
2023-09-27T19:47:36.119Z,4.95
2023-09-27T19:50:05.548Z,5.00
2023-09-27T19:52:34.065Z,5.25
2023-09-27T19:55:01.643Z,5.23
2023-09-27T19:57:29.829Z,4.65
2023-09-27T19:59:57.179Z,4.45
2023-09-27T20:02:24.776Z,4.65
2023-09-27T20:04:54.618Z,4.82
2023-09-27T20:07:23.479Z,4.83
2023-09-27T20:09:50.847Z,5.05
2023-09-27T20:12:18.145Z,4.75
2023-09-27T20:14:45.505Z,4.72
2023-09-27T20:17:13.136Z,4.75
2023-09-27T20:19:40.582Z,4.70
2023-09-27T20:22:08.229Z,4.63
2023-09-27T20:24:38.900Z,4.88
2023-09-27T20:27:06.327Z,4.95
2023-09-27T20:29:33.677Z,5.32
2023-09-27T20:32:01.257Z,5.13
2023-09-27T20:34:28.770Z,4.88
2023-09-27T20:36:56.069Z,5.13
2023-09-27T20:39:23.380Z,4.88
2023-09-27T20:41:50.896Z,5.10
2023-09-27T20:44:18.256Z,5.63
2023-09-27T20:46:45.677Z,5.18
2023-09-27T20:49:13.019Z,4.60
2023-09-27T20:51:40.404Z,5.40
2023-09-27T20:54:07.719Z,5.50
2023-09-27T20:56:34.976Z,5.20
2023-09-27T20:59:02.402Z,5.05
2023-09-27T21:01:36.887Z,4.97
2023-09-27T21:04:04.867Z,4.43
2023-09-27T21:06:32.282Z,5.53
2023-09-27T21:09:03.782Z,4.43
2023-09-27T21:11:31.375Z,4.50
2023-09-27T21:14:00.520Z,4.70
2023-09-27T21:16:29.262Z,4.95
2023-09-27T21:18:56.734Z,4.30
2023-09-27T21:21:24.172Z,4.83
2023-09-27T21:23:52.792Z,3.92
2023-09-27T21:26:20.603Z,4.70
2023-09-27T21:28:48.021Z,4.97
2023-09-27T21:31:15.450Z,4.97
2023-09-27T21:33:43.267Z,4.87
2023-09-27T21:36:10.593Z,4.60
2023-09-27T21:38:38.011Z,5.45
2023-09-27T21:41:05.446Z,5.38
2023-09-27T21:43:35.638Z,5.22
2023-09-27T21:46:04.043Z,4.40
2023-09-27T21:48:31.598Z,4.78
2023-09-27T21:50:58.871Z,4.95
2023-09-27T21:53:26.170Z,5.30
2023-09-27T21:55:54.284Z,4.78
2023-09-27T21:58:21.679Z,5.17
2023-09-27T22:00:49.045Z,5.53
2023-09-27T22:03:18.342Z,5.22
2023-09-27T22:05:45.895Z,5.05
2023-09-27T22:08:24.131Z,4.97
2023-09-27T22:10:51.571Z,4.97
2023-09-27T22:13:24.877Z,4.60
2023-09-27T22:15:53.201Z,5.50
2023-09-27T22:18:21.161Z,4.85
2023-09-27T22:20:48.872Z,5.25
2023-09-27T22:23:25.420Z,4.67
2023-09-27T22:25:54.908Z,4.45
2023-09-27T22:28:23.124Z,4.65
2023-09-27T22:30:50.442Z,4.60
2023-09-27T22:33:26.513Z,5.22
2023-09-27T22:35:53.774Z,4.33
2023-09-27T22:38:21.034Z,4.78
2023-09-27T22:40:48.649Z,5.10
2023-09-27T22:43:17.373Z,4.72
2023-09-27T22:45:49.039Z,4.53
2023-09-27T22:48:17.296Z,4.90
2023-09-27T22:50:46.060Z,5.15
2023-09-27T22:53:14.751Z,4.63
2023-09-27T22:55:51.536Z,4.95
2023-09-27T22:58:23.395Z,5.38
2023-09-27T23:00:58.391Z,4.63
2023-09-27T23:03:30.734Z,5.20
2023-09-27T23:05:58.453Z,5.25
2023-09-27T23:08:28.610Z,5.50
2023-09-27T23:10:58.005Z,6.18
2023-09-27T23:13:32.384Z,5.37
2023-09-27T23:16:00.584Z,4.93
2023-09-27T23:18:30.401Z,4.45
2023-09-27T23:20:58.881Z,4.90
2023-09-27T23:23:26.516Z,5.93
2023-09-27T23:25:55.321Z,4.97
2023-09-27T23:28:31.641Z,5.18
2023-09-27T23:31:09.424Z,4.85
2023-09-27T23:33:43.796Z,4.43
2023-09-27T23:36:25.347Z,4.85
2023-09-27T23:38:59.765Z,5.00
2023-09-27T23:41:31.093Z,4.72
2023-09-27T23:44:05.881Z,5.40
2023-09-27T23:46:38.406Z,4.93
2023-09-27T23:49:06.611Z,4.50
2023-09-27T23:51:34.165Z,5.03
2023-09-27T23:54:03.876Z,5.40
2023-09-27T23:56:31.613Z,4.88
2023-09-27T23:59:09.859Z,5.10
